createdAt,value
2018-08-11T00:04:21.218Z,15.00
2018-08-11T00:08:29.393Z,15.00
2018-08-11T00:12:37.916Z,15.00
2018-08-11T00:16:46.147Z,14.90
2018-08-11T00:20:54.305Z,14.90
2018-08-11T00:25:02.494Z,14.80
2018-08-11T00:29:10.690Z,14.80
2018-08-11T00:33:18.870Z,14.70
2018-08-11T00:37:27.103Z,14.70
2018-08-11T00:41:35.329Z,14.60
2018-08-11T00:45:43.671Z,14.50
2018-08-11T00:49:51.882Z,14.40
2018-08-11T00:54:00.091Z,14.40
2018-08-11T00:58:08.281Z,14.30
2018-08-11T01:02:16.566Z,14.30
2018-08-11T01:06:24.793Z,14.30
2018-08-11T01:10:33.016Z,14.30
2018-08-11T01:14:41.240Z,14.30
2018-08-11T01:18:49.491Z,14.30
2018-08-11T01:22:57.724Z,14.30
2018-08-11T01:27:06.026Z,14.40
2018-08-11T01:31:14.439Z,14.40
2018-08-11T01:35:22.652Z,14.40
2018-08-11T01:39:30.856Z,14.30
2018-08-11T01:43:39.106Z,14.20
2018-08-11T01:47:47.446Z,14.10
2018-08-11T01:51:55.650Z,14.00
2018-08-11T01:56:03.905Z,14.10
2018-08-11T02:00:13.708Z,14.10
2018-08-11T02:04:21.895Z,14.20
2018-08-11T02:08:30.100Z,14.40
2018-08-11T02:12:38.386Z,14.70
2018-08-11T02:16:46.566Z,15.00
2018-08-11T02:20:54.753Z,15.20
2018-08-11T02:25:03.217Z,15.40
2018-08-11T02:29:11.451Z,15.50
2018-08-11T02:33:19.651Z,15.60
2018-08-11T02:37:27.827Z,15.50
2018-08-11T02:41:36.028Z,15.50
2018-08-11T02:45:44.246Z,15.50
2018-08-11T02:49:52.474Z,15.40
2018-08-11T02:54:00.911Z,15.40
2018-08-11T02:58:09.310Z,15.30
2018-08-11T03:02:17.522Z,15.40
2018-08-11T03:06:25.727Z,15.40
2018-08-11T03:10:33.930Z,15.40
2018-08-11T03:14:42.170Z,15.40
2018-08-11T03:18:50.410Z,15.30
2018-08-11T03:22:58.643Z,15.20
2018-08-11T03:27:06.909Z,15.10
2018-08-11T03:31:15.239Z,15.00
2018-08-11T03:35:23.467Z,14.80
2018-08-11T03:39:31.690Z,14.70
2018-08-11T03:43:39.959Z,14.60
2018-08-11T03:47:48.282Z,14.50
2018-08-11T03:51:56.486Z,14.40
2018-08-11T03:56:04.819Z,14.30
2018-08-11T04:00:13.298Z,14.30
2018-08-11T04:04:21.549Z,14.30
2018-08-11T04:08:30.181Z,14.30
2018-08-11T04:12:38.433Z,14.40
2018-08-11T04:16:46.791Z,14.50
2018-08-11T04:20:55.046Z,14.60
2018-08-11T04:25:03.279Z,14.60
2018-08-11T04:29:11.619Z,14.60
2018-08-11T04:33:19.837Z,14.60
2018-08-11T04:37:28.094Z,14.50
2018-08-11T04:41:36.803Z,14.50
2018-08-11T04:45:45.050Z,14.60
2018-08-11T04:49:53.454Z,14.80
2018-08-11T04:54:01.729Z,15.00
2018-08-11T04:58:09.967Z,15.00
2018-08-11T05:02:18.147Z,15.10
2018-08-11T05:06:26.364Z,15.10
2018-08-11T05:10:34.646Z,15.10
2018-08-11T05:14:42.936Z,15.10
2018-08-11T05:18:51.326Z,15.20
2018-08-11T05:22:59.518Z,15.50
2018-08-11T05:27:07.723Z,16.10
2018-08-11T05:31:15.965Z,16.60
2018-08-11T05:35:24.189Z,16.60
2018-08-11T05:39:32.454Z,16.40
2018-08-11T05:43:41.198Z,16.50
2018-08-11T05:47:49.440Z,16.70
2018-08-11T05:51:57.660Z,16.90
2018-08-11T05:56:06.012Z,17.00
2018-08-11T06:00:14.250Z,17.10
2018-08-11T06:04:22.437Z,17.10
2018-08-11T06:08:30.662Z,17.20
2018-08-11T06:12:39.419Z,17.20
2018-08-11T06:16:47.630Z,17.20
2018-08-11T06:20:55.826Z,17.10
2018-08-11T06:25:05.064Z,16.90
2018-08-11T06:29:13.392Z,16.90
2018-08-11T06:33:22.005Z,17.30
2018-08-11T06:37:30.249Z,17.90
2018-08-11T06:41:38.445Z,18.10
2018-08-11T06:45:46.688Z,18.10
2018-08-11T06:49:55.030Z,18.30
2018-08-11T06:54:03.309Z,18.30
2018-08-11T06:58:11.670Z,18.40
2018-08-11T07:02:19.884Z,18.70
2018-08-11T07:06:28.196Z,18.50
2018-08-11T07:10:36.318Z,18.00
2018-08-11T07:14:44.606Z,17.60
2018-08-11T07:18:52.907Z,17.80
2018-08-11T07:23:01.140Z,18.20
2018-08-11T07:27:09.402Z,18.70
2018-08-11T07:31:17.601Z,19.00
2018-08-11T07:35:25.822Z,19.20
2018-08-11T07:39:34.026Z,18.90
2018-08-11T07:43:42.254Z,18.30
2018-08-11T07:47:50.434Z,18.50
2018-08-11T07:51:58.608Z,19.20
2018-08-11T07:56:06.914Z,19.60
2018-08-11T08:00:15.087Z,19.50
2018-08-11T08:04:23.434Z,19.40
2018-08-11T08:08:31.614Z,19.50
2018-08-11T08:12:39.874Z,19.10
2018-08-11T08:16:48.066Z,18.80
2018-08-11T08:20:56.251Z,19.40
2018-08-11T08:25:05.094Z,19.50
2018-08-11T08:29:13.550Z,20.10
2018-08-11T08:33:21.745Z,21.10
2018-08-11T08:37:29.926Z,21.20
2018-08-11T08:41:38.131Z,21.50
2018-08-11T08:45:46.404Z,21.90
2018-08-11T08:49:54.754Z,21.50
2018-08-11T08:54:02.949Z,21.00
2018-08-11T08:58:11.152Z,21.40
2018-08-11T09:02:19.326Z,21.90
2018-08-11T09:06:27.526Z,21.30
2018-08-11T09:10:35.698Z,21.10
2018-08-11T09:14:43.885Z,21.60
2018-08-11T09:18:52.089Z,21.70
2018-08-11T09:23:00.335Z,21.40
2018-08-11T09:27:08.517Z,22.00
2018-08-11T09:31:16.778Z,22.20
2018-08-11T09:35:25.008Z,22.50
2018-08-11T09:39:33.375Z,22.90
2018-08-11T09:43:41.685Z,22.70
2018-08-11T09:47:49.929Z,22.40
2018-08-11T09:51:58.116Z,21.80
2018-08-11T09:56:06.335Z,21.20
2018-08-11T10:00:17.657Z,20.50
2018-08-11T10:04:25.861Z,20.40
2018-08-11T10:08:34.135Z,21.30
2018-08-11T10:12:42.377Z,22.50
2018-08-11T10:16:50.583Z,22.90
2018-08-11T10:20:58.789Z,22.40
2018-08-11T10:25:07.930Z,22.50
2018-08-11T10:29:16.129Z,22.40
2018-08-11T10:33:24.493Z,22.30
2018-08-11T10:37:34.479Z,22.30
2018-08-11T10:41:42.728Z,22.30
2018-08-11T10:45:50.974Z,22.20
2018-08-11T10:49:59.182Z,22.20
2018-08-11T10:54:07.373Z,21.80
2018-08-11T10:58:15.561Z,22.10
2018-08-11T11:02:23.749Z,22.70
2018-08-11T11:06:31.944Z,23.30
2018-08-11T11:10:40.143Z,23.90
2018-08-11T11:14:48.380Z,24.20
2018-08-11T11:18:56.577Z,24.70
2018-08-11T11:23:04.809Z,24.80
2018-08-11T11:27:13.011Z,23.90
2018-08-11T11:31:21.184Z,23.50
2018-08-11T11:35:29.372Z,23.20
2018-08-11T11:39:37.682Z,22.80
2018-08-11T11:43:46.043Z,22.80
2018-08-11T11:47:54.581Z,23.60
2018-08-11T11:52:02.818Z,23.60
2018-08-11T11:56:11.066Z,23.60
2018-08-11T12:00:19.347Z,23.10
2018-08-11T12:04:27.545Z,22.60
2018-08-11T12:08:35.757Z,22.60
2018-08-11T12:12:43.981Z,22.60
2018-08-11T12:16:52.478Z,23.50
2018-08-11T12:21:00.705Z,23.90
2018-08-11T12:25:09.266Z,24.00
2018-08-11T12:29:17.474Z,24.80
2018-08-11T12:33:25.699Z,25.50
2018-08-11T12:37:34.021Z,25.80
2018-08-11T12:41:42.235Z,26.30
2018-08-11T12:45:50.590Z,26.70
2018-08-11T12:49:58.808Z,26.70
2018-08-11T12:54:07.048Z,25.80
2018-08-11T12:58:15.247Z,25.20
2018-08-11T13:02:23.471Z,26.00
2018-08-11T13:06:31.670Z,26.40
2018-08-11T13:10:39.934Z,27.00
2018-08-11T13:14:48.157Z,27.30
2018-08-11T13:18:56.363Z,27.60
2018-08-11T13:23:04.591Z,27.80
2018-08-11T13:27:12.818Z,27.30
2018-08-11T13:31:21.046Z,27.30
2018-08-11T13:35:29.233Z,26.80
2018-08-11T13:39:41.177Z,26.70
2018-08-11T13:43:49.617Z,27.10
2018-08-11T13:47:57.838Z,27.20
2018-08-11T13:52:06.163Z,27.70
2018-08-11T13:56:14.372Z,27.90
2018-08-11T14:00:22.617Z,27.80
2018-08-11T14:04:30.846Z,27.50
2018-08-11T14:08:39.073Z,26.70
2018-08-11T14:12:47.312Z,26.40
2018-08-11T14:16:55.641Z,26.90
2018-08-11T14:21:03.868Z,27.10
2018-08-11T14:25:12.112Z,27.00
2018-08-11T14:29:20.435Z,27.00
2018-08-11T14:33:28.668Z,27.10
2018-08-11T14:37:36.912Z,26.90
2018-08-11T14:41:45.134Z,26.80
2018-08-11T14:45:53.419Z,26.80
2018-08-11T14:50:01.726Z,26.90
2018-08-11T14:54:09.969Z,26.70
2018-08-11T14:58:18.302Z,26.70
2018-08-11T15:02:26.537Z,26.60
2018-08-11T15:06:34.771Z,26.60
2018-08-11T15:10:43.101Z,26.70
2018-08-11T15:14:51.325Z,26.60
2018-08-11T15:18:59.601Z,26.50
2018-08-11T15:23:08.033Z,26.30
2018-08-11T15:27:16.284Z,26.20
2018-08-11T15:31:24.508Z,26.30
2018-08-11T15:35:32.767Z,26.30
2018-08-11T15:39:41.111Z,26.40
2018-08-11T15:43:50.652Z,26.40
2018-08-11T15:47:58.926Z,26.40
2018-08-11T15:52:07.934Z,26.70
2018-08-11T15:56:16.133Z,26.80
2018-08-11T16:00:24.366Z,26.50
2018-08-11T16:04:32.565Z,26.20
2018-08-11T16:08:40.926Z,26.20
2018-08-11T16:12:49.150Z,26.20
2018-08-11T16:16:57.370Z,26.20
2018-08-11T16:21:05.614Z,25.80
2018-08-11T16:25:13.831Z,25.70
2018-08-11T16:33:29.997Z,25.10
2018-08-11T16:37:38.472Z,24.80
2018-08-11T16:41:46.666Z,24.70
2018-08-11T16:45:54.853Z,24.40
2018-08-11T16:50:03.084Z,24.30
2018-08-11T16:54:11.293Z,24.10
2018-08-11T16:58:19.471Z,24.10
2018-08-11T17:02:27.633Z,24.10
2018-08-11T17:06:35.822Z,23.90
2018-08-11T17:10:44.017Z,23.90
2018-08-11T17:14:52.209Z,24.60
2018-08-11T17:19:00.516Z,25.90
2018-08-11T17:23:08.034Z,27.40
2018-08-11T17:27:15.521Z,27.80
2018-08-11T17:31:23.710Z,28.00
2018-08-11T17:35:31.202Z,28.40
2018-08-11T17:39:39.409Z,28.80
2018-08-11T17:43:47.637Z,29.00
2018-08-11T17:47:55.815Z,28.90
2018-08-11T17:52:04.054Z,28.40
2018-08-11T17:56:12.283Z,28.20
2018-08-11T18:00:20.482Z,28.30
2018-08-11T18:04:28.727Z,28.00
2018-08-11T18:08:36.934Z,27.80
2018-08-11T18:12:45.127Z,26.80
2018-08-11T18:16:53.393Z,25.80
2018-08-11T18:21:01.693Z,25.30
2018-08-11T18:25:10.089Z,24.70
2018-08-11T18:29:18.285Z,23.90
2018-08-11T18:33:26.737Z,23.10
2018-08-11T18:37:34.926Z,22.50
2018-08-11T18:41:43.649Z,22.10
2018-08-11T18:45:51.934Z,21.60
2018-08-11T18:50:00.130Z,21.30
2018-08-11T18:54:08.333Z,20.90
2018-08-11T18:58:17.400Z,20.50
2018-08-11T19:02:25.598Z,20.10
2018-08-11T19:06:33.875Z,19.80
2018-08-11T19:10:42.036Z,19.50
2018-08-11T19:14:50.208Z,19.20
2018-08-11T19:18:58.428Z,18.90
2018-08-11T19:23:06.597Z,18.60
2018-08-11T19:27:14.900Z,18.30
2018-08-11T19:31:23.241Z,18.00
2018-08-11T19:35:31.455Z,17.80
2018-08-11T19:43:47.752Z,17.30
2018-08-11T19:47:56.160Z,17.20
2018-08-11T19:52:04.646Z,16.90
2018-08-11T19:56:13.231Z,16.80
2018-08-11T20:00:21.518Z,16.60
2018-08-11T20:08:38.417Z,16.30
2018-08-11T20:12:46.753Z,16.20
2018-08-11T20:16:54.887Z,16.10
2018-08-11T20:21:03.405Z,15.90
2018-08-11T20:25:11.718Z,15.80
2018-08-11T20:29:19.978Z,15.60
2018-08-11T20:33:28.376Z,15.50
2018-08-11T20:37:36.635Z,15.40
2018-08-11T20:41:45.048Z,15.20
2018-08-11T20:45:53.279Z,15.00
2018-08-11T20:50:01.529Z,14.80
2018-08-11T20:54:09.855Z,14.70
2018-08-11T20:58:18.070Z,14.70
2018-08-11T21:02:26.373Z,14.60
2018-08-11T21:06:34.562Z,14.50
2018-08-11T21:10:42.773Z,14.50
2018-08-11T21:14:50.953Z,14.40
2018-08-11T21:18:59.219Z,14.30
2018-08-11T21:23:07.354Z,14.20
2018-08-11T21:27:15.493Z,14.10
2018-08-11T21:31:23.646Z,14.10
2018-08-11T21:35:31.779Z,14.00
2018-08-11T21:39:39.927Z,13.90
2018-08-11T21:43:48.067Z,13.80
2018-08-11T21:47:56.202Z,13.70
2018-08-11T21:52:04.399Z,13.60
2018-08-11T21:56:12.559Z,13.40
2018-08-11T22:00:37.815Z,13.20
2018-08-11T22:04:45.943Z,13.20
2018-08-11T22:08:54.092Z,13.10
2018-08-11T22:13:02.296Z,13.10
2018-08-11T22:17:10.475Z,13.00
2018-08-11T22:21:18.628Z,12.90
2018-08-11T22:25:26.788Z,12.80
2018-08-11T22:29:34.939Z,12.80
2018-08-11T22:33:43.175Z,12.70
2018-08-11T22:37:51.335Z,12.60
2018-08-11T22:41:59.502Z,12.50
2018-08-11T22:46:07.682Z,12.40
2018-08-11T22:50:15.835Z,12.30
2018-08-11T22:54:24.013Z,12.20
2018-08-11T22:58:32.175Z,12.10
2018-08-11T23:02:40.337Z,12.10
2018-08-11T23:06:48.555Z,12.00
2018-08-11T23:10:56.700Z,12.00
2018-08-11T23:15:06.507Z,11.90
2018-08-11T23:19:14.657Z,11.80
2018-08-11T23:27:30.710Z,11.80
2018-08-11T23:31:38.865Z,11.70
2018-08-11T23:35:47.024Z,11.60
2018-08-11T23:39:55.346Z,11.50
2018-08-11T23:44:03.586Z,11.50
2018-08-11T23:48:11.741Z,11.40
2018-08-11T23:52:19.907Z,11.30
2018-08-11T23:56:28.213Z,11.30
